createdAt,value
2022-10-18T00:00:18.487Z,99.90
2022-10-18T00:02:45.183Z,99.90
2022-10-18T00:05:12.239Z,99.90
2022-10-18T00:07:38.963Z,99.90
2022-10-18T00:10:06.648Z,99.90
2022-10-18T00:12:37.660Z,99.90
2022-10-18T00:15:06.154Z,99.90
2022-10-18T00:17:35.721Z,99.90
2022-10-18T00:20:02.536Z,99.90
2022-10-18T00:22:29.499Z,99.90
2022-10-18T00:24:56.659Z,99.90
2022-10-18T00:27:23.467Z,99.90
2022-10-18T00:29:53.120Z,99.90
2022-10-18T00:32:19.808Z,99.90
2022-10-18T00:34:46.680Z,99.90
2022-10-18T00:37:13.395Z,99.90
2022-10-18T00:39:40.224Z,99.90
2022-10-18T00:42:06.921Z,99.90
2022-10-18T00:44:33.568Z,99.90
2022-10-18T00:47:04.937Z,99.90
2022-10-18T00:49:35.371Z,99.90
2022-10-18T00:52:18.956Z,99.90
2022-10-18T00:54:48.387Z,99.90
2022-10-18T00:57:15.432Z,99.90
2022-10-18T00:59:43.177Z,99.90
2022-10-18T01:02:10.796Z,99.90
2022-10-18T01:04:37.538Z,99.90
2022-10-18T01:07:07.297Z,99.90
2022-10-18T01:09:50.065Z,99.90
2022-10-18T01:12:32.988Z,99.90
2022-10-18T01:15:06.429Z,99.90
2022-10-18T01:17:49.677Z,99.90
2022-10-18T01:20:37.083Z,99.90
2022-10-18T01:23:19.300Z,99.90
2022-10-18T01:26:07.471Z,99.90
2022-10-18T01:29:02.438Z,99.90
2022-10-18T01:31:37.703Z,99.90
2022-10-18T01:34:07.803Z,99.90
2022-10-18T01:36:38.064Z,99.90
2022-10-18T01:39:08.751Z,99.90
2022-10-18T01:41:38.469Z,99.90
2022-10-18T01:44:08.597Z,99.90
2022-10-18T01:46:37.366Z,99.90
2022-10-18T01:49:04.707Z,99.90
2022-10-18T01:51:32.890Z,99.90
2022-10-18T01:54:00.055Z,99.90
2022-10-18T01:56:37.796Z,99.90
2022-10-18T01:59:10.388Z,99.90
2022-10-18T02:01:51.580Z,99.90
2022-10-18T02:04:30.312Z,99.90
2022-10-18T02:07:32.360Z,99.90
2022-10-18T02:12:48.480Z,99.90
2022-10-18T02:15:21.157Z,99.90
2022-10-18T02:17:47.815Z,99.90
2022-10-18T02:20:21.045Z,99.90
2022-10-18T02:22:50.052Z,99.90
2022-10-18T02:25:22.774Z,99.90
2022-10-18T02:27:49.800Z,99.90
2022-10-18T02:30:17.467Z,99.90
2022-10-18T02:32:58.948Z,99.90
2022-10-18T02:35:49.209Z,99.90
2022-10-18T02:38:19.120Z,99.90
2022-10-18T02:40:45.786Z,99.90
2022-10-18T02:43:14.314Z,99.90
2022-10-18T02:45:41.372Z,99.90
2022-10-18T02:48:08.079Z,99.90
2022-10-18T02:50:34.857Z,99.90
2022-10-18T02:53:01.614Z,99.90
2022-10-18T02:57:56.121Z,99.90
2022-10-18T03:00:22.752Z,99.90
2022-10-18T03:02:49.451Z,99.90
2022-10-18T03:05:16.365Z,99.90
2022-10-18T03:07:43.016Z,99.90
2022-10-18T03:10:09.912Z,99.90
2022-10-18T03:12:36.630Z,99.90
2022-10-18T03:15:03.741Z,99.90
2022-10-18T03:17:30.624Z,99.90
2022-10-18T03:19:57.896Z,99.90
2022-10-18T03:22:25.323Z,99.90
2022-10-18T03:24:52.088Z,99.90
2022-10-18T03:27:18.797Z,99.90
2022-10-18T03:29:45.419Z,99.90
2022-10-18T03:32:12.067Z,99.90
2022-10-18T03:34:38.764Z,99.90
2022-10-18T03:37:05.595Z,99.90
2022-10-18T03:39:32.325Z,99.90
2022-10-18T03:41:59.284Z,99.90
2022-10-18T03:44:25.931Z,99.90
2022-10-18T03:46:52.597Z,99.90
2022-10-18T03:49:19.303Z,99.90
2022-10-18T03:51:45.996Z,99.90
2022-10-18T03:54:12.694Z,99.90
2022-10-18T03:56:39.689Z,99.90
2022-10-18T03:59:06.352Z,99.90
2022-10-18T04:01:33.051Z,99.90
2022-10-18T04:04:00.022Z,99.90
2022-10-18T04:06:26.771Z,99.90
2022-10-18T04:08:55.513Z,99.90
2022-10-18T04:11:22.252Z,99.90
2022-10-18T04:13:50.234Z,99.90
2022-10-18T04:16:16.962Z,99.90
2022-10-18T04:18:43.714Z,99.90
2022-10-18T04:21:10.411Z,99.90
2022-10-18T04:23:38.838Z,99.90
2022-10-18T04:26:06.445Z,99.90
2022-10-18T04:28:33.925Z,99.90
2022-10-18T04:31:00.834Z,99.90
2022-10-18T04:33:27.781Z,99.90
2022-10-18T04:35:54.463Z,99.90
2022-10-18T04:38:21.227Z,99.90
2022-10-18T04:40:47.956Z,99.90
2022-10-18T04:43:14.805Z,99.90
2022-10-18T04:45:41.827Z,99.90
2022-10-18T04:48:09.161Z,99.90
2022-10-18T04:50:35.942Z,99.90
2022-10-18T04:53:02.725Z,99.90
2022-10-18T04:55:29.506Z,99.90
2022-10-18T04:57:56.165Z,99.90
2022-10-18T05:00:22.860Z,99.90
2022-10-18T05:02:49.763Z,99.90
2022-10-18T05:05:16.576Z,99.90
2022-10-18T05:07:43.216Z,99.90
2022-10-18T05:10:09.995Z,99.90
2022-10-18T05:12:36.722Z,99.90
2022-10-18T05:15:03.755Z,99.90
2022-10-18T05:17:30.526Z,99.90
2022-10-18T05:19:57.169Z,99.90
2022-10-18T05:22:23.919Z,99.90
2022-10-18T05:24:50.718Z,99.90
2022-10-18T05:27:17.420Z,99.90
2022-10-18T05:29:44.235Z,99.90
2022-10-18T05:32:11.026Z,99.90
2022-10-18T05:34:37.776Z,99.90
2022-10-18T05:37:04.688Z,99.90
2022-10-18T05:39:31.400Z,99.90
2022-10-18T05:41:58.483Z,99.90
2022-10-18T05:44:25.247Z,99.90
2022-10-18T05:46:52.134Z,99.90
2022-10-18T05:49:19.099Z,99.90
2022-10-18T05:51:45.766Z,99.90
2022-10-18T05:54:12.647Z,99.90
2022-10-18T05:59:12.208Z,99.90
2022-10-18T06:01:40.556Z,99.90
2022-10-18T06:04:08.254Z,99.90
2022-10-18T06:06:34.965Z,99.90
2022-10-18T06:09:03.502Z,99.90
2022-10-18T06:11:31.302Z,99.90
2022-10-18T06:13:58.406Z,99.90
2022-10-18T06:16:32.004Z,99.90
2022-10-18T06:19:00.032Z,99.90
2022-10-18T06:21:27.517Z,99.90
2022-10-18T06:23:56.999Z,99.90
2022-10-18T06:26:24.556Z,99.90
2022-10-18T06:28:51.424Z,99.90
2022-10-18T06:31:18.552Z,99.90
2022-10-18T06:33:46.052Z,99.90
2022-10-18T06:36:17.861Z,99.90
2022-10-18T06:38:44.877Z,99.90
2022-10-18T06:41:11.908Z,99.90
2022-10-18T06:43:38.829Z,99.90
2022-10-18T06:46:07.671Z,99.90
2022-10-18T06:48:36.317Z,99.90
2022-10-18T06:51:06.140Z,99.90
2022-10-18T06:53:40.802Z,99.90
2022-10-18T06:56:13.181Z,99.90
2022-10-18T06:58:40.475Z,99.90
2022-10-18T07:01:10.036Z,99.90
2022-10-18T07:03:37.382Z,99.90
2022-10-18T07:06:06.840Z,99.90
2022-10-18T07:08:33.689Z,99.90
2022-10-18T07:11:00.884Z,99.90
2022-10-18T07:13:33.026Z,99.90
2022-10-18T07:16:05.938Z,99.90
2022-10-18T07:18:37.437Z,99.90
2022-10-18T07:21:09.617Z,99.90
2022-10-18T07:23:38.633Z,99.90
2022-10-18T07:26:14.108Z,99.90
2022-10-18T07:28:41.341Z,99.90
2022-10-18T07:31:09.854Z,99.90
2022-10-18T07:33:40.094Z,99.90
2022-10-18T07:36:09.015Z,99.90
2022-10-18T07:38:36.375Z,99.90
2022-10-18T07:41:06.470Z,99.90
2022-10-18T07:43:33.869Z,99.90
2022-10-18T07:46:03.146Z,99.90
2022-10-18T07:48:29.988Z,99.90
2022-10-18T07:51:01.494Z,99.90
2022-10-18T07:53:29.292Z,99.90
2022-10-18T07:56:02.308Z,99.90
2022-10-18T07:58:32.604Z,99.90
2022-10-18T08:01:04.214Z,99.90
2022-10-18T08:03:31.333Z,99.90
2022-10-18T08:05:58.460Z,99.90
2022-10-18T08:08:26.193Z,99.90
2022-10-18T08:10:53.288Z,99.90
2022-10-18T08:13:20.968Z,99.90
2022-10-18T08:15:47.873Z,99.90
2022-10-18T08:18:14.749Z,99.90
2022-10-18T08:20:45.841Z,99.90
2022-10-18T08:23:12.918Z,99.90
2022-10-18T08:25:39.836Z,99.90
2022-10-18T08:28:07.239Z,99.90
2022-10-18T08:30:35.708Z,99.90
2022-10-18T08:33:03.731Z,99.90
2022-10-18T08:35:31.762Z,99.90
2022-10-18T08:37:59.358Z,99.90
2022-10-18T08:40:27.580Z,99.90
2022-10-18T08:43:07.191Z,99.90
2022-10-18T08:45:42.340Z,99.90
2022-10-18T08:48:17.055Z,99.90
2022-10-18T08:50:43.900Z,99.90
2022-10-18T08:53:39.940Z,99.90
2022-10-18T08:56:21.646Z,99.90
2022-10-18T08:58:48.757Z,99.90
2022-10-18T09:01:30.337Z,99.90
2022-10-18T09:04:15.093Z,99.90
2022-10-18T09:07:09.439Z,99.90
2022-10-18T09:10:21.431Z,99.90
2022-10-18T09:12:48.084Z,99.90
2022-10-18T09:15:29.429Z,99.90
2022-10-18T09:18:02.120Z,99.90
2022-10-18T09:20:54.410Z,99.90
2022-10-18T09:23:49.367Z,99.90
2022-10-18T09:26:20.753Z,99.90
2022-10-18T09:29:13.337Z,99.90
2022-10-18T09:31:58.370Z,99.90
2022-10-18T09:34:31.267Z,99.90
2022-10-18T09:36:58.979Z,99.90
2022-10-18T09:39:35.338Z,99.90
2022-10-18T09:42:28.535Z,99.90
2022-10-18T09:45:06.336Z,99.90
2022-10-18T09:47:41.085Z,99.90
2022-10-18T09:50:24.489Z,99.90
2022-10-18T09:53:20.146Z,99.90
2022-10-18T09:56:02.836Z,99.90
2022-10-18T09:58:49.231Z,99.90
2022-10-18T10:01:31.729Z,99.90
2022-10-18T10:03:58.507Z,99.90
2022-10-18T10:06:34.626Z,99.90
2022-10-18T10:09:07.622Z,99.90
2022-10-18T10:11:40.385Z,99.90
2022-10-18T10:14:17.739Z,99.90
2022-10-18T10:17:03.273Z,99.90
2022-10-18T10:19:41.088Z,99.90
2022-10-18T10:22:12.126Z,99.90
2022-10-18T10:24:51.290Z,99.90
2022-10-18T10:27:34.323Z,99.90
2022-10-18T10:30:20.696Z,99.90
2022-10-18T10:32:49.412Z,99.90
2022-10-18T10:38:25.412Z,99.90
2022-10-18T10:40:52.641Z,99.90
2022-10-18T10:43:40.719Z,99.90
2022-10-18T10:46:13.917Z,99.90
2022-10-18T10:49:09.536Z,99.90
2022-10-18T10:51:43.767Z,99.90
2022-10-18T10:54:20.778Z,99.90
2022-10-18T10:57:12.737Z,99.90
2022-10-18T10:59:45.633Z,99.90
2022-10-18T11:02:15.382Z,99.90
2022-10-18T11:04:43.258Z,99.90
2022-10-18T11:07:09.916Z,99.70
2022-10-18T11:09:50.579Z,98.10
2022-10-18T11:12:22.856Z,96.00
2022-10-18T11:15:10.062Z,95.10
2022-10-18T11:17:46.314Z,92.00
2022-10-18T11:20:35.397Z,87.30
2022-10-18T11:23:15.840Z,82.50
2022-10-18T11:26:04.398Z,77.30
2022-10-18T11:28:48.790Z,72.80
2022-10-18T11:31:45.263Z,69.10
2022-10-18T11:34:22.417Z,66.90
2022-10-18T11:36:56.346Z,63.90
2022-10-18T11:39:29.087Z,62.90
2022-10-18T11:42:08.248Z,61.90
2022-10-18T11:44:45.582Z,61.00
2022-10-18T11:47:46.079Z,60.90
2022-10-18T11:50:38.139Z,59.00
2022-10-18T11:53:25.232Z,58.00
2022-10-18T11:56:03.967Z,56.90
2022-10-18T11:58:42.612Z,55.00
2022-10-18T12:01:28.621Z,55.50
2022-10-18T12:04:07.447Z,55.00
2022-10-18T12:06:38.673Z,53.50
2022-10-18T12:09:17.077Z,52.30
2022-10-18T12:11:55.795Z,52.00
2022-10-18T12:14:35.142Z,52.40
2022-10-18T12:17:40.210Z,53.80
2022-10-18T12:20:02.179Z,52.10
2022-10-18T12:22:38.908Z,52.90
2022-10-18T12:25:13.153Z,51.90
2022-10-18T12:27:55.010Z,51.40
2022-10-18T12:30:32.489Z,50.70
2022-10-18T12:33:27.121Z,50.20
2022-10-18T12:36:19.932Z,49.50
2022-10-18T12:38:52.390Z,49.20
2022-10-18T12:41:30.410Z,49.10
2022-10-18T12:44:00.125Z,49.00
2022-10-18T12:46:46.955Z,48.60
2022-10-18T12:49:17.140Z,48.00
2022-10-18T12:51:59.638Z,48.40
2022-10-18T12:54:38.371Z,48.50
2022-10-18T12:57:17.731Z,48.50
2022-10-18T12:59:44.440Z,49.10
2022-10-18T13:02:24.499Z,48.70
2022-10-18T13:04:51.386Z,48.70
2022-10-18T13:07:40.813Z,48.60
2022-10-18T13:10:10.425Z,48.50
2022-10-18T13:12:49.408Z,48.20
2022-10-18T13:15:34.156Z,48.00
2022-10-18T13:18:10.470Z,47.90
2022-10-18T13:20:40.331Z,48.00
2022-10-18T13:23:25.601Z,47.90
2022-10-18T13:26:09.746Z,47.70
2022-10-18T13:29:04.315Z,47.80
2022-10-18T13:31:37.538Z,48.20
2022-10-18T13:34:35.368Z,47.90
2022-10-18T13:37:18.440Z,47.60
2022-10-18T13:39:45.287Z,47.90
2022-10-18T13:42:15.040Z,47.70
2022-10-18T13:44:44.530Z,47.60
2022-10-18T13:47:31.896Z,48.50
2022-10-18T13:50:17.828Z,49.30
2022-10-18T13:53:14.695Z,49.80
2022-10-18T13:56:12.581Z,49.30
2022-10-18T13:59:14.428Z,50.30
2022-10-18T14:02:03.618Z,51.20
2022-10-18T14:05:23.693Z,51.20
2022-10-18T14:07:58.160Z,54.70
2022-10-18T14:11:01.910Z,57.50
2022-10-18T14:13:36.500Z,60.50
2022-10-18T14:16:26.341Z,62.80
2022-10-18T14:18:59.170Z,66.30
2022-10-18T14:21:34.903Z,67.50
2022-10-18T14:24:02.673Z,69.50
2022-10-18T14:26:29.549Z,70.70
2022-10-18T14:29:07.085Z,72.90
2022-10-18T14:31:35.080Z,75.40
2022-10-18T14:34:02.666Z,78.50
2022-10-18T14:36:40.808Z,80.00
2022-10-18T14:39:21.929Z,82.20
2022-10-18T14:41:59.135Z,82.10
2022-10-18T14:44:31.365Z,83.30
2022-10-18T14:47:20.001Z,84.30
2022-10-18T14:49:47.481Z,85.30
2022-10-18T14:52:18.269Z,86.70
2022-10-18T14:54:46.073Z,88.40
2022-10-18T14:57:39.086Z,90.00
2022-10-18T15:00:09.121Z,90.70
2022-10-18T15:02:37.484Z,91.00
2022-10-18T15:05:23.205Z,91.30
2022-10-18T15:07:50.758Z,92.40
2022-10-18T15:10:25.202Z,92.90
2022-10-18T15:13:09.433Z,93.10
2022-10-18T15:15:37.494Z,93.50
2022-10-18T15:18:06.475Z,94.50
2022-10-18T15:20:39.412Z,95.70
2022-10-18T15:23:31.213Z,95.10
2022-10-18T15:26:04.853Z,95.50
2022-10-18T15:28:37.715Z,95.70
2022-10-18T15:31:05.386Z,96.00
2022-10-18T15:33:34.653Z,96.60
2022-10-18T15:36:12.521Z,97.10
2022-10-18T15:38:39.339Z,97.90
2022-10-18T15:41:37.096Z,98.40
2022-10-18T15:44:25.296Z,98.40
2022-10-18T15:46:55.710Z,99.10
2022-10-18T15:49:43.980Z,99.90
2022-10-18T15:52:38.506Z,99.90
2022-10-18T15:55:30.880Z,99.90
2022-10-18T15:58:05.585Z,99.90
2022-10-18T16:00:32.401Z,99.90
2022-10-18T16:02:59.095Z,99.90
2022-10-18T16:05:26.034Z,99.90
2022-10-18T16:07:52.889Z,99.90
2022-10-18T16:10:19.685Z,99.90
2022-10-18T16:12:46.646Z,99.90
2022-10-18T16:15:13.467Z,99.90
2022-10-18T16:17:40.219Z,99.90
2022-10-18T16:20:17.853Z,99.90
2022-10-18T16:22:44.548Z,99.90
2022-10-18T16:25:11.221Z,99.90
2022-10-18T16:27:37.962Z,99.90
2022-10-18T16:30:18.416Z,99.90
2022-10-18T16:32:46.322Z,99.90
2022-10-18T16:35:13.456Z,99.90
2022-10-18T16:37:40.538Z,99.90
2022-10-18T16:40:37.638Z,99.90
2022-10-18T16:43:07.122Z,99.90
2022-10-18T16:45:33.884Z,99.90
2022-10-18T16:48:00.562Z,99.90
2022-10-18T16:50:30.858Z,99.90
2022-10-18T16:52:59.890Z,99.90
2022-10-18T16:55:26.617Z,99.90
2022-10-18T16:57:53.277Z,99.90
2022-10-18T17:00:22.978Z,99.90
2022-10-18T17:02:50.356Z,99.90
2022-10-18T17:05:18.324Z,99.90
2022-10-18T17:07:46.075Z,99.90
2022-10-18T17:10:18.867Z,99.90
2022-10-18T17:12:45.779Z,99.90
2022-10-18T17:15:13.131Z,99.90
2022-10-18T17:17:40.230Z,99.90
2022-10-18T17:20:09.144Z,99.90
2022-10-18T17:22:35.915Z,99.90
2022-10-18T17:25:03.451Z,99.90
2022-10-18T17:27:30.323Z,99.90
2022-10-18T17:29:57.555Z,99.90
2022-10-18T17:32:24.327Z,99.90
2022-10-18T17:34:51.204Z,99.90
2022-10-18T17:37:18.049Z,99.90
2022-10-18T17:39:45.048Z,99.90
2022-10-18T17:42:11.739Z,99.90
2022-10-18T17:44:38.397Z,99.90
2022-10-18T17:47:05.218Z,99.90
2022-10-18T17:49:32.003Z,99.90
2022-10-18T17:52:00.276Z,99.90
2022-10-18T17:54:29.843Z,99.90
2022-10-18T17:56:56.493Z,99.90
2022-10-18T17:59:23.340Z,99.90
2022-10-18T18:01:50.287Z,99.90
2022-10-18T18:04:17.040Z,99.90
2022-10-18T18:06:45.400Z,99.90
2022-10-18T18:09:14.864Z,99.90
2022-10-18T18:11:49.544Z,99.90
2022-10-18T18:14:16.581Z,99.90
2022-10-18T18:16:45.622Z,99.90
2022-10-18T18:19:13.813Z,99.90
2022-10-18T18:21:41.339Z,99.90
2022-10-18T18:24:09.969Z,99.90
2022-10-18T18:26:38.190Z,99.90
2022-10-18T18:29:05.293Z,99.90
2022-10-18T18:31:36.975Z,99.90
2022-10-18T18:34:07.319Z,99.90
2022-10-18T18:36:34.041Z,99.90
2022-10-18T18:39:00.778Z,99.90
2022-10-18T18:41:28.729Z,99.90
2022-10-18T18:43:57.736Z,99.90
2022-10-18T18:46:26.269Z,99.90
2022-10-18T18:48:53.242Z,99.90
2022-10-18T18:51:21.334Z,99.90
2022-10-18T18:53:48.576Z,99.90
2022-10-18T18:56:18.092Z,99.90
2022-10-18T18:58:46.096Z,99.90
2022-10-18T19:01:24.665Z,99.90
2022-10-18T19:03:52.973Z,99.90
2022-10-18T19:06:22.659Z,99.90
2022-10-18T19:08:50.312Z,99.90
2022-10-18T19:11:19.645Z,99.90
2022-10-18T19:13:47.081Z,99.90
2022-10-18T19:16:41.203Z,99.90
2022-10-18T19:19:12.495Z,99.90
2022-10-18T19:21:42.903Z,99.90
2022-10-18T19:24:09.813Z,99.90
2022-10-18T19:26:38.612Z,99.90
2022-10-18T19:29:29.788Z,99.90
2022-10-18T19:31:59.552Z,99.90
2022-10-18T19:34:28.924Z,99.90
2022-10-18T19:36:55.770Z,99.90
2022-10-18T19:39:34.154Z,99.90
2022-10-18T19:42:05.944Z,99.90
2022-10-18T19:44:35.788Z,99.90
2022-10-18T19:47:03.401Z,99.90
2022-10-18T19:49:30.478Z,99.90
2022-10-18T19:51:57.636Z,99.90
2022-10-18T19:54:25.013Z,99.90
2022-10-18T19:56:51.767Z,99.90
2022-10-18T19:59:19.001Z,99.90
2022-10-18T20:01:45.925Z,99.90
2022-10-18T20:04:13.379Z,99.90
2022-10-18T20:06:40.430Z,99.90
2022-10-18T20:09:08.073Z,99.90
2022-10-18T20:11:35.075Z,99.90
2022-10-18T20:14:01.984Z,99.90
2022-10-18T20:16:32.228Z,99.90
2022-10-18T20:19:04.195Z,99.90
2022-10-18T20:21:35.436Z,99.90
2022-10-18T20:24:05.683Z,99.90
2022-10-18T20:26:33.141Z,99.90
2022-10-18T20:29:00.069Z,99.90
2022-10-18T20:31:37.218Z,99.90
2022-10-18T20:34:07.512Z,99.90
2022-10-18T20:36:35.351Z,99.90
2022-10-18T20:39:03.436Z,99.90
2022-10-18T20:41:35.713Z,99.90
2022-10-18T20:44:04.772Z,99.90
2022-10-18T20:46:34.028Z,99.90
2022-10-18T20:49:01.464Z,99.90
2022-10-18T20:51:28.731Z,99.90
2022-10-18T20:53:55.642Z,99.90
2022-10-18T20:56:26.393Z,99.90
2022-10-18T20:58:55.461Z,99.90
2022-10-18T21:01:31.068Z,99.90
2022-10-18T21:04:00.666Z,99.90
2022-10-18T21:06:40.121Z,99.90
2022-10-18T21:09:10.345Z,99.90
2022-10-18T21:11:39.658Z,99.90
2022-10-18T21:14:07.766Z,99.90
2022-10-18T21:16:35.563Z,99.90
2022-10-18T21:19:06.257Z,99.90
2022-10-18T21:21:33.492Z,99.90
2022-10-18T21:24:03.890Z,99.90
2022-10-18T21:26:34.225Z,99.90
2022-10-18T21:29:01.086Z,99.90
2022-10-18T21:31:30.875Z,99.90
2022-10-18T21:34:00.071Z,99.90
2022-10-18T21:36:30.071Z,99.90
2022-10-18T21:38:56.814Z,99.90
2022-10-18T21:41:23.657Z,99.90
2022-10-18T21:43:52.983Z,99.90
2022-10-18T21:46:21.590Z,99.90
2022-10-18T21:48:51.389Z,99.90
2022-10-18T21:51:20.624Z,99.90
2022-10-18T21:53:49.312Z,99.90
2022-10-18T21:56:22.323Z,99.90
2022-10-18T21:58:49.329Z,99.90
2022-10-18T22:01:19.195Z,99.90
2022-10-18T22:03:49.448Z,99.90
2022-10-18T22:06:17.634Z,99.90
2022-10-18T22:08:51.524Z,99.90
2022-10-18T22:11:20.577Z,99.90
2022-10-18T22:13:47.384Z,99.90
2022-10-18T22:16:15.985Z,99.90
2022-10-18T22:18:43.447Z,99.90
2022-10-18T22:21:12.195Z,99.90
2022-10-18T22:23:41.818Z,99.90
2022-10-18T22:26:13.309Z,99.90
2022-10-18T22:28:41.818Z,99.90
2022-10-18T22:31:16.057Z,99.90
2022-10-18T22:33:42.866Z,99.90
2022-10-18T22:36:09.627Z,99.90
2022-10-18T22:38:36.559Z,99.90
2022-10-18T22:41:07.930Z,99.90
2022-10-18T22:43:35.295Z,99.90
2022-10-18T22:46:07.744Z,99.90
2022-10-18T22:48:34.836Z,99.90
2022-10-18T22:51:02.282Z,99.90
2022-10-18T22:53:29.547Z,99.90
2022-10-18T22:55:56.285Z,99.90
2022-10-18T22:58:23.570Z,99.90
2022-10-18T23:00:50.322Z,99.90
2022-10-18T23:03:18.684Z,99.90
2022-10-18T23:05:46.691Z,99.90
2022-10-18T23:08:14.728Z,99.90
2022-10-18T23:10:42.761Z,99.90
2022-10-18T23:13:10.650Z,99.90
2022-10-18T23:15:39.095Z,99.90
2022-10-18T23:18:06.297Z,99.90
2022-10-18T23:20:32.995Z,99.90
2022-10-18T23:22:59.716Z,99.90
2022-10-18T23:25:27.231Z,99.90
2022-10-18T23:27:54.052Z,99.90
2022-10-18T23:30:20.825Z,99.90
2022-10-18T23:32:47.518Z,99.90
2022-10-18T23:35:14.271Z,99.90
2022-10-18T23:37:41.018Z,99.90
2022-10-18T23:40:08.564Z,99.90
2022-10-18T23:42:35.289Z,99.90
2022-10-18T23:45:02.015Z,99.90
2022-10-18T23:47:28.758Z,99.90
2022-10-18T23:49:57.196Z,99.90
2022-10-18T23:52:24.834Z,99.90
2022-10-18T23:54:51.548Z,99.90
2022-10-18T23:57:18.346Z,99.90
2022-10-18T23:59:45.036Z,99.90
